sensor_id;sensor_type;location;lat;lon;timestamp;temperature;humidity
22779;DHT22;11556;51.194;3.800;2023-02-28T00:01:31;2.40;99.90
22779;DHT22;11556;51.194;3.800;2023-02-28T00:03:57;2.30;99.90
22779;DHT22;11556;51.194;3.800;2023-02-28T00:06:23;2.30;99.90
22779;DHT22;11556;51.194;3.800;2023-02-28T00:08:49;2.30;99.90
22779;DHT22;11556;51.194;3.800;2023-02-28T00:11:16;2.30;99.90
22779;DHT22;11556;51.194;3.800;2023-02-28T00:13:44;2.30;99.90
22779;DHT22;11556;51.194;3.800;2023-02-28T00:16:17;2.20;99.90
22779;DHT22;11556;51.194;3.800;2023-02-28T00:18:43;2.30;99.90
22779;DHT22;11556;51.194;3.800;2023-02-28T00:21:09;2.20;99.90
22779;DHT22;11556;51.194;3.800;2023-02-28T00:23:35;2.30;99.90
22779;DHT22;11556;51.194;3.800;2023-02-28T00:26:00;2.20;99.90
22779;DHT22;11556;51.194;3.800;2023-02-28T00:28:26;2.20;99.90
22779;DHT22;11556;51.194;3.800;2023-02-28T00:30:52;2.10;99.90
22779;DHT22;11556;51.194;3.800;2023-02-28T00:33:17;2.10;99.90
22779;DHT22;11556;51.194;3.800;2023-02-28T00:35:44;2.10;99.90
22779;DHT22;11556;51.194;3.800;2023-02-28T00:38:12;2.10;99.90
22779;DHT22;11556;51.194;3.800;2023-02-28T00:40:38;2.10;99.90
22779;DHT22;11556;51.194;3.800;2023-02-28T00:43:04;2.10;99.90
22779;DHT22;11556;51.194;3.800;2023-02-28T00:45:29;2.10;99.90
22779;DHT22;11556;51.194;3.800;2023-02-28T00:47:55;2.10;99.90
22779;DHT22;11556;51.194;3.800;2023-02-28T00:50:21;2.10;99.90
22779;DHT22;11556;51.194;3.800;2023-02-28T00:52:47;2.10;99.90
22779;DHT22;11556;51.194;3.800;2023-02-28T00:55:13;2.10;99.90
22779;DHT22;11556;51.194;3.800;2023-02-28T00:57:39;2.10;99.90
22779;DHT22;11556;51.194;3.800;2023-02-28T01:00:06;2.00;99.90
22779;DHT22;11556;51.194;3.800;2023-02-28T01:02:32;2.00;99.90
22779;DHT22;11556;51.194;3.800;2023-02-28T01:04:57;2.00;99.90
22779;DHT22;11556;51.194;3.800;2023-02-28T01:07:23;2.00;99.90
22779;DHT22;11556;51.194;3.800;2023-02-28T01:09:49;2.00;99.90
22779;DHT22;11556;51.194;3.800;2023-02-28T01:12:15;2.00;99.90
22779;DHT22;11556;51.194;3.800;2023-02-28T01:14:40;2.00;99.90
22779;DHT22;11556;51.194;3.800;2023-02-28T01:17:06;2.00;99.90
22779;DHT22;11556;51.194;3.800;2023-02-28T01:19:33;1.90;99.90
22779;DHT22;11556;51.194;3.800;2023-02-28T01:22:04;1.90;99.90
22779;DHT22;11556;51.194;3.800;2023-02-28T01:24:31;1.90;99.90
22779;DHT22;11556;51.194;3.800;2023-02-28T01:26:57;1.90;99.90
22779;DHT22;11556;51.194;3.800;2023-02-28T01:29:22;1.90;99.90
22779;DHT22;11556;51.194;3.800;2023-02-28T01:31:48;1.90;99.90
22779;DHT22;11556;51.194;3.800;2023-02-28T01:34:14;1.80;99.90
22779;DHT22;11556;51.194;3.800;2023-02-28T01:36:39;1.80;99.90
22779;DHT22;11556;51.194;3.800;2023-02-28T01:39:05;1.80;99.90
22779;DHT22;11556;51.194;3.800;2023-02-28T01:41:32;1.80;99.90
22779;DHT22;11556;51.194;3.800;2023-02-28T01:46:49;1.70;99.90
22779;DHT22;11556;51.194;3.800;2023-02-28T01:49:17;1.70;99.90
22779;DHT22;11556;51.194;3.800;2023-02-28T01:51:46;1.70;99.90
22779;DHT22;11556;51.194;3.800;2023-02-28T01:54:24;1.60;99.90
22779;DHT22;11556;51.194;3.800;2023-02-28T01:56:58;1.60;99.90
22779;DHT22;11556;51.194;3.800;2023-02-28T01:59:35;1.60;99.90
22779;DHT22;11556;51.194;3.800;2023-02-28T02:02:03;1.60;99.90
22779;DHT22;11556;51.194;3.800;2023-02-28T02:04:37;1.50;99.90
22779;DHT22;11556;51.194;3.800;2023-02-28T02:07:04;1.50;99.90
22779;DHT22;11556;51.194;3.800;2023-02-28T02:09:30;1.50;99.90
22779;DHT22;11556;51.194;3.800;2023-02-28T02:11:56;1.50;99.90
22779;DHT22;11556;51.194;3.800;2023-02-28T02:14:36;1.40;99.90
22779;DHT22;11556;51.194;3.800;2023-02-28T02:17:32;1.40;99.90
22779;DHT22;11556;51.194;3.800;2023-02-28T02:20:06;1.40;99.90
22779;DHT22;11556;51.194;3.800;2023-02-28T02:25:22;1.40;99.90
22779;DHT22;11556;51.194;3.800;2023-02-28T02:31:06;1.40;99.90
22779;DHT22;11556;51.194;3.800;2023-02-28T02:36:38;1.50;99.90
22779;DHT22;11556;51.194;3.800;2023-02-28T02:39:26;1.60;99.90
22779;DHT22;11556;51.194;3.800;2023-02-28T02:41:57;1.60;99.90
22779;DHT22;11556;51.194;3.800;2023-02-28T02:44:31;1.60;99.90
22779;DHT22;11556;51.194;3.800;2023-02-28T02:47:08;1.60;99.90
22779;DHT22;11556;51.194;3.800;2023-02-28T02:49:37;1.60;99.90
22779;DHT22;11556;51.194;3.800;2023-02-28T02:52:08;1.60;99.90
22779;DHT22;11556;51.194;3.800;2023-02-28T02:54:41;1.60;99.90
22779;DHT22;11556;51.194;3.800;2023-02-28T02:57:13;1.60;99.90
22779;DHT22;11556;51.194;3.800;2023-02-28T02:59:41;1.60;99.90
22779;DHT22;11556;51.194;3.800;2023-02-28T03:02:11;1.50;99.90
22779;DHT22;11556;51.194;3.800;2023-02-28T03:04:45;1.50;99.90
22779;DHT22;11556;51.194;3.800;2023-02-28T03:07:11;1.50;99.90
22779;DHT22;11556;51.194;3.800;2023-02-28T03:09:37;1.50;99.90
22779;DHT22;11556;51.194;3.800;2023-02-28T03:12:03;1.60;99.90
22779;DHT22;11556;51.194;3.800;2023-02-28T03:28:16;1.90;99.90
22779;DHT22;11556;51.194;3.800;2023-02-28T03:30:51;1.90;99.90
22779;DHT22;11556;51.194;3.800;2023-02-28T03:33:22;1.90;99.90
22779;DHT22;11556;51.194;3.800;2023-02-28T03:36:02;2.00;99.90
22779;DHT22;11556;51.194;3.800;2023-02-28T03:38:41;2.00;99.90
22779;DHT22;11556;51.194;3.800;2023-02-28T03:41:14;2.00;99.90
22779;DHT22;11556;51.194;3.800;2023-02-28T03:43:45;2.00;99.90
22779;DHT22;11556;51.194;3.800;2023-02-28T03:46:14;2.00;99.90
22779;DHT22;11556;51.194;3.800;2023-02-28T03:48:45;2.00;99.90
22779;DHT22;11556;51.194;3.800;2023-02-28T03:51:17;2.10;99.90
22779;DHT22;11556;51.194;3.800;2023-02-28T03:53:52;2.10;99.90
22779;DHT22;11556;51.194;3.800;2023-02-28T03:56:25;2.10;99.90
22779;DHT22;11556;51.194;3.800;2023-02-28T03:58:59;2.20;99.90
22779;DHT22;11556;51.194;3.800;2023-02-28T04:01:30;2.10;99.90
22779;DHT22;11556;51.194;3.800;2023-02-28T04:03:57;2.30;99.90
22779;DHT22;11556;51.194;3.800;2023-02-28T04:06:23;2.30;99.90
22779;DHT22;11556;51.194;3.800;2023-02-28T04:08:50;2.40;99.90
22779;DHT22;11556;51.194;3.800;2023-02-28T04:13:47;2.30;99.90
22779;DHT22;11556;51.194;3.800;2023-02-28T04:16:13;2.40;99.90
22779;DHT22;11556;51.194;3.800;2023-02-28T04:18:39;2.40;99.90
22779;DHT22;11556;51.194;3.800;2023-02-28T04:21:06;2.40;99.90
22779;DHT22;11556;51.194;3.800;2023-02-28T04:23:32;2.40;99.90
22779;DHT22;11556;51.194;3.800;2023-02-28T04:25:57;2.50;99.90
22779;DHT22;11556;51.194;3.800;2023-02-28T04:28:23;2.50;99.90
22779;DHT22;11556;51.194;3.800;2023-02-28T04:30:57;2.70;99.90
22779;DHT22;11556;51.194;3.800;2023-02-28T04:33:23;2.80;99.90
22779;DHT22;11556;51.194;3.800;2023-02-28T04:36:02;2.80;99.90
22779;DHT22;11556;51.194;3.800;2023-02-28T04:38:29;2.90;99.90
22779;DHT22;11556;51.194;3.800;2023-02-28T04:40:57;2.90;99.90
22779;DHT22;11556;51.194;3.800;2023-02-28T04:43:23;3.00;99.90
22779;DHT22;11556;51.194;3.800;2023-02-28T04:45:49;3.10;99.90
22779;DHT22;11556;51.194;3.800;2023-02-28T04:48:15;3.10;99.90
22779;DHT22;11556;51.194;3.800;2023-02-28T04:50:41;3.10;99.90
22779;DHT22;11556;51.194;3.800;2023-02-28T04:53:07;3.20;99.90
22779;DHT22;11556;51.194;3.800;2023-02-28T04:55:32;3.10;99.90
22779;DHT22;11556;51.194;3.800;2023-02-28T04:57:58;3.20;99.90
22779;DHT22;11556;51.194;3.800;2023-02-28T05:00:24;3.10;99.90
22779;DHT22;11556;51.194;3.800;2023-02-28T05:02:50;3.10;99.90
22779;DHT22;11556;51.194;3.800;2023-02-28T05:05:16;3.10;99.90
22779;DHT22;11556;51.194;3.800;2023-02-28T05:07:44;3.10;99.90
22779;DHT22;11556;51.194;3.800;2023-02-28T05:10:10;3.20;99.90
22779;DHT22;11556;51.194;3.800;2023-02-28T05:12:36;3.20;99.90
22779;DHT22;11556;51.194;3.800;2023-02-28T05:15:02;3.20;99.90
22779;DHT22;11556;51.194;3.800;2023-02-28T05:17:28;3.20;99.90
22779;DHT22;11556;51.194;3.800;2023-02-28T05:19:53;3.20;99.90
22779;DHT22;11556;51.194;3.800;2023-02-28T05:22:19;3.20;99.90
22779;DHT22;11556;51.194;3.800;2023-02-28T05:24:45;3.20;99.90
22779;DHT22;11556;51.194;3.800;2023-02-28T05:27:10;3.10;99.90
22779;DHT22;11556;51.194;3.800;2023-02-28T05:29:36;3.10;99.90
22779;DHT22;11556;51.194;3.800;2023-02-28T05:32:09;3.00;99.90
22779;DHT22;11556;51.194;3.800;2023-02-28T05:34:37;3.10;99.90
22779;DHT22;11556;51.194;3.800;2023-02-28T05:37:03;3.10;99.90
22779;DHT22;11556;51.194;3.800;2023-02-28T05:39:29;3.00;99.90
22779;DHT22;11556;51.194;3.800;2023-02-28T05:41:54;3.00;99.90
22779;DHT22;11556;51.194;3.800;2023-02-28T05:44:20;2.90;99.90
22779;DHT22;11556;51.194;3.800;2023-02-28T05:46:46;3.00;99.90
22779;DHT22;11556;51.194;3.800;2023-02-28T05:49:11;3.00;99.90
22779;DHT22;11556;51.194;3.800;2023-02-28T05:51:37;2.90;99.90
22779;DHT22;11556;51.194;3.800;2023-02-28T05:54:05;2.90;99.90
22779;DHT22;11556;51.194;3.800;2023-02-28T05:56:32;2.90;99.90
22779;DHT22;11556;51.194;3.800;2023-02-28T05:59:00;2.90;99.90
22779;DHT22;11556;51.194;3.800;2023-02-28T06:01:37;2.90;99.90
22779;DHT22;11556;51.194;3.800;2023-02-28T06:04:05;2.90;99.90
22779;DHT22;11556;51.194;3.800;2023-02-28T06:06:31;2.90;99.90
22779;DHT22;11556;51.194;3.800;2023-02-28T06:08:59;2.90;99.90
22779;DHT22;11556;51.194;3.800;2023-02-28T06:11:26;2.90;99.90
22779;DHT22;11556;51.194;3.800;2023-02-28T06:13:57;2.90;99.90
22779;DHT22;11556;51.194;3.800;2023-02-28T06:16:25;2.90;99.90
22779;DHT22;11556;51.194;3.800;2023-02-28T06:18:51;3.00;99.90
22779;DHT22;11556;51.194;3.800;2023-02-28T06:21:18;3.00;99.90
22779;DHT22;11556;51.194;3.800;2023-02-28T06:23:44;3.00;99.90
22779;DHT22;11556;51.194;3.800;2023-02-28T06:26:10;2.90;99.90
22779;DHT22;11556;51.194;3.800;2023-02-28T06:28:36;3.00;99.90
22779;DHT22;11556;51.194;3.800;2023-02-28T06:31:06;3.00;99.90
22779;DHT22;11556;51.194;3.800;2023-02-28T06:33:33;2.90;99.90
22779;DHT22;11556;51.194;3.800;2023-02-28T06:35:58;3.00;99.90
22779;DHT22;11556;51.194;3.800;2023-02-28T06:38:24;3.00;99.90
22779;DHT22;11556;51.194;3.800;2023-02-28T06:40:54;3.00;99.90
22779;DHT22;11556;51.194;3.800;2023-02-28T06:43:21;3.10;99.90
22779;DHT22;11556;51.194;3.800;2023-02-28T06:45:47;3.00;99.90
22779;DHT22;11556;51.194;3.800;2023-02-28T06:48:12;3.00;99.90
22779;DHT22;11556;51.194;3.800;2023-02-28T06:50:38;3.00;99.90
22779;DHT22;11556;51.194;3.800;2023-02-28T06:53:04;3.10;99.90
22779;DHT22;11556;51.194;3.800;2023-02-28T06:55:30;3.00;99.90
22779;DHT22;11556;51.194;3.800;2023-02-28T06:57:55;3.10;99.90
22779;DHT22;11556;51.194;3.800;2023-02-28T07:00:22;3.10;99.90
22779;DHT22;11556;51.194;3.800;2023-02-28T07:02:48;3.10;99.90
22779;DHT22;11556;51.194;3.800;2023-02-28T07:05:13;3.10;99.90
22779;DHT22;11556;51.194;3.800;2023-02-28T07:07:39;3.10;99.90
22779;DHT22;11556;51.194;3.800;2023-02-28T07:10:12;3.10;99.90
22779;DHT22;11556;51.194;3.800;2023-02-28T07:12:38;3.20;99.90
22779;DHT22;11556;51.194;3.800;2023-02-28T07:15:05;3.30;99.90
22779;DHT22;11556;51.194;3.800;2023-02-28T07:17:31;3.30;99.90
22779;DHT22;11556;51.194;3.800;2023-02-28T07:19:57;3.30;99.90
22779;DHT22;11556;51.194;3.800;2023-02-28T07:22:22;3.30;99.90
22779;DHT22;11556;51.194;3.800;2023-02-28T07:24:48;3.30;99.90
22779;DHT22;11556;51.194;3.800;2023-02-28T07:27:14;3.30;99.90
22779;DHT22;11556;51.194;3.800;2023-02-28T07:29:52;3.30;99.90
22779;DHT22;11556;51.194;3.800;2023-02-28T07:32:18;3.30;99.90
22779;DHT22;11556;51.194;3.800;2023-02-28T07:34:44;3.30;99.90
22779;DHT22;11556;51.194;3.800;2023-02-28T07:37:10;3.40;99.90
22779;DHT22;11556;51.194;3.800;2023-02-28T07:39:36;3.40;99.90
22779;DHT22;11556;51.194;3.800;2023-02-28T07:42:06;3.40;99.90
22779;DHT22;11556;51.194;3.800;2023-02-28T07:44:34;3.40;99.90
22779;DHT22;11556;51.194;3.800;2023-02-28T07:47:00;3.30;99.90
22779;DHT22;11556;51.194;3.800;2023-02-28T07:49:26;3.40;99.90
22779;DHT22;11556;51.194;3.800;2023-02-28T07:51:52;3.30;99.90
22779;DHT22;11556;51.194;3.800;2023-02-28T07:54:17;3.30;99.90
22779;DHT22;11556;51.194;3.800;2023-02-28T07:56:43;3.40;99.90
22779;DHT22;11556;51.194;3.800;2023-02-28T07:59:08;3.40;99.90
22779;DHT22;11556;51.194;3.800;2023-02-28T08:01:34;3.50;99.90
22779;DHT22;11556;51.194;3.800;2023-02-28T08:04:00;3.50;99.90
22779;DHT22;11556;51.194;3.800;2023-02-28T08:06:25;3.50;99.90
22779;DHT22;11556;51.194;3.800;2023-02-28T08:08:52;3.60;99.90
22779;DHT22;11556;51.194;3.800;2023-02-28T08:11:18;3.70;99.90
22779;DHT22;11556;51.194;3.800;2023-02-28T08:13:44;3.70;99.90
22779;DHT22;11556;51.194;3.800;2023-02-28T08:16:11;3.70;99.90
22779;DHT22;11556;51.194;3.800;2023-02-28T08:18:40;3.60;99.90
22779;DHT22;11556;51.194;3.800;2023-02-28T08:21:07;3.60;99.90
22779;DHT22;11556;51.194;3.800;2023-02-28T08:23:33;3.70;99.90
22779;DHT22;11556;51.194;3.800;2023-02-28T08:25:59;3.90;99.90
22779;DHT22;11556;51.194;3.800;2023-02-28T08:28:24;4.00;99.90
22779;DHT22;11556;51.194;3.800;2023-02-28T08:30:50;4.00;99.90
22779;DHT22;11556;51.194;3.800;2023-02-28T08:33:16;4.00;99.90
22779;DHT22;11556;51.194;3.800;2023-02-28T08:35:41;4.10;99.90
22779;DHT22;11556;51.194;3.800;2023-02-28T08:38:07;4.10;99.90
22779;DHT22;11556;51.194;3.800;2023-02-28T08:40:32;4.00;99.90
22779;DHT22;11556;51.194;3.800;2023-02-28T08:42:58;4.00;99.90
22779;DHT22;11556;51.194;3.800;2023-02-28T08:45:25;4.00;99.90
22779;DHT22;11556;51.194;3.800;2023-02-28T08:47:50;4.10;99.90
22779;DHT22;11556;51.194;3.800;2023-02-28T08:50:17;4.20;99.90
22779;DHT22;11556;51.194;3.800;2023-02-28T08:52:43;4.30;99.90
22779;DHT22;11556;51.194;3.800;2023-02-28T08:55:10;4.50;99.90
22779;DHT22;11556;51.194;3.800;2023-02-28T08:57:36;4.60;99.90
22779;DHT22;11556;51.194;3.800;2023-02-28T09:00:03;4.40;99.90
22779;DHT22;11556;51.194;3.800;2023-02-28T09:02:30;4.30;99.90
22779;DHT22;11556;51.194;3.800;2023-02-28T09:04:57;4.30;99.90
22779;DHT22;11556;51.194;3.800;2023-02-28T09:07:23;4.30;99.90
22779;DHT22;11556;51.194;3.800;2023-02-28T09:09:49;4.20;99.90
22779;DHT22;11556;51.194;3.800;2023-02-28T09:12:22;4.30;99.90
22779;DHT22;11556;51.194;3.800;2023-02-28T09:14:48;4.40;99.90
22779;DHT22;11556;51.194;3.800;2023-02-28T09:17:14;4.30;99.90
22779;DHT22;11556;51.194;3.800;2023-02-28T09:19:40;4.20;99.90
22779;DHT22;11556;51.194;3.800;2023-02-28T09:22:06;4.20;99.90
22779;DHT22;11556;51.194;3.800;2023-02-28T09:24:31;4.30;99.90
22779;DHT22;11556;51.194;3.800;2023-02-28T09:26:57;4.20;99.90
22779;DHT22;11556;51.194;3.800;2023-02-28T09:29:23;4.20;99.90
22779;DHT22;11556;51.194;3.800;2023-02-28T09:31:48;4.20;99.90
22779;DHT22;11556;51.194;3.800;2023-02-28T09:34:15;4.30;99.90
22779;DHT22;11556;51.194;3.800;2023-02-28T09:36:42;4.40;99.90
22779;DHT22;11556;51.194;3.800;2023-02-28T09:39:08;4.40;99.90
22779;DHT22;11556;51.194;3.800;2023-02-28T09:41:46;4.30;99.90
22779;DHT22;11556;51.194;3.800;2023-02-28T09:46:58;4.10;99.90
22779;DHT22;11556;51.194;3.800;2023-02-28T09:49:33;4.10;99.90
22779;DHT22;11556;51.194;3.800;2023-02-28T09:52:09;4.30;99.90
22779;DHT22;11556;51.194;3.800;2023-02-28T09:54:36;4.50;99.90
22779;DHT22;11556;51.194;3.800;2023-02-28T09:57:35;4.50;99.90
22779;DHT22;11556;51.194;3.800;2023-02-28T10:03:23;4.50;99.90
22779;DHT22;11556;51.194;3.800;2023-02-28T10:06:02;4.50;99.90
22779;DHT22;11556;51.194;3.800;2023-02-28T10:11:23;4.80;99.90
22779;DHT22;11556;51.194;3.800;2023-02-28T10:13:53;4.60;99.90
22779;DHT22;11556;51.194;3.800;2023-02-28T10:16:34;4.30;99.90
22779;DHT22;11556;51.194;3.800;2023-02-28T10:19:14;4.30;99.90
22779;DHT22;11556;51.194;3.800;2023-02-28T10:22:11;4.30;99.90
22779;DHT22;11556;51.194;3.800;2023-02-28T10:24:44;4.40;99.90
22779;DHT22;11556;51.194;3.800;2023-02-28T10:27:18;4.50;99.90
22779;DHT22;11556;51.194;3.800;2023-02-28T10:29:47;4.60;99.90
22779;DHT22;11556;51.194;3.800;2023-02-28T10:32:17;4.80;99.90
22779;DHT22;11556;51.194;3.800;2023-02-28T10:34:43;5.00;99.90
22779;DHT22;11556;51.194;3.800;2023-02-28T10:37:11;4.90;99.90
22779;DHT22;11556;51.194;3.800;2023-02-28T10:39:45;4.90;99.90
22779;DHT22;11556;51.194;3.800;2023-02-28T10:42:32;5.10;99.90
22779;DHT22;11556;51.194;3.800;2023-02-28T10:45:14;5.20;99.90
22779;DHT22;11556;51.194;3.800;2023-02-28T10:47:56;5.10;99.90
22779;DHT22;11556;51.194;3.800;2023-02-28T10:55:32;5.40;99.90
22779;DHT22;11556;51.194;3.800;2023-02-28T10:57:58;5.30;99.90
22779;DHT22;11556;51.194;3.800;2023-02-28T11:00:25;5.30;99.90
22779;DHT22;11556;51.194;3.800;2023-02-28T11:02:56;5.30;99.90
22779;DHT22;11556;51.194;3.800;2023-02-28T11:05:33;5.30;99.90
22779;DHT22;11556;51.194;3.800;2023-02-28T11:10:33;5.80;99.90
22779;DHT22;11556;51.194;3.800;2023-02-28T11:13:00;6.80;99.90
22779;DHT22;11556;51.194;3.800;2023-02-28T11:15:32;7.70;99.90
22779;DHT22;11556;51.194;3.800;2023-02-28T11:18:04;8.50;98.60
22779;DHT22;11556;51.194;3.800;2023-02-28T11:20:33;8.30;98.10
22779;DHT22;11556;51.194;3.800;2023-02-28T11:23:03;8.40;96.40
22779;DHT22;11556;51.194;3.800;2023-02-28T11:25:34;8.20;96.90
22779;DHT22;11556;51.194;3.800;2023-02-28T11:28:06;8.40;97.00
22779;DHT22;11556;51.194;3.800;2023-02-28T11:38:41;8.10;95.90
22779;DHT22;11556;51.194;3.800;2023-02-28T11:47:19;8.20;92.10
22779;DHT22;11556;51.194;3.800;2023-02-28T11:52:54;6.90;96.10
22779;DHT22;11556;51.194;3.800;2023-02-28T11:55:35;7.40;95.80
22779;DHT22;11556;51.194;3.800;2023-02-28T12:04:06;8.00;95.30
22779;DHT22;11556;51.194;3.800;2023-02-28T12:06:57;8.50;92.70
22779;DHT22;11556;51.194;3.800;2023-02-28T12:18:01;8.60;92.90
22779;DHT22;11556;51.194;3.800;2023-02-28T12:28:57;8.60;85.30
22779;DHT22;11556;51.194;3.800;2023-02-28T12:31:28;8.30;87.20
22779;DHT22;11556;51.194;3.800;2023-02-28T12:34:00;8.20;82.40
22779;DHT22;11556;51.194;3.800;2023-02-28T12:36:28;7.60;82.30
22779;DHT22;11556;51.194;3.800;2023-02-28T12:39:12;7.80;83.40
22779;DHT22;11556;51.194;3.800;2023-02-28T12:41:45;7.70;84.70
22779;DHT22;11556;51.194;3.800;2023-02-28T12:47:08;8.00;82.20
22779;DHT22;11556;51.194;3.800;2023-02-28T12:49:57;7.50;80.80
22779;DHT22;11556;51.194;3.800;2023-02-28T13:09:19;7.50;75.70
22779;DHT22;11556;51.194;3.800;2023-02-28T13:11:47;7.90;78.40
22779;DHT22;11556;51.194;3.800;2023-02-28T13:14:29;8.10;76.80
22779;DHT22;11556;51.194;3.800;2023-02-28T13:19:37;7.90;72.80
22779;DHT22;11556;51.194;3.800;2023-02-28T13:22:04;7.90;74.60
22779;DHT22;11556;51.194;3.800;2023-02-28T13:24:53;8.10;76.40
22779;DHT22;11556;51.194;3.800;2023-02-28T13:27:31;8.00;71.10
22779;DHT22;11556;51.194;3.800;2023-02-28T13:29:58;7.50;71.50
22779;DHT22;11556;51.194;3.800;2023-02-28T13:42:35;7.80;69.40
22779;DHT22;11556;51.194;3.800;2023-02-28T13:47:30;7.80;72.70
22779;DHT22;11556;51.194;3.800;2023-02-28T13:50:28;8.10;72.40
22779;DHT22;11556;51.194;3.800;2023-02-28T14:06:29;7.50;70.50
22779;DHT22;11556;51.194;3.800;2023-02-28T14:09:01;7.80;73.20
22779;DHT22;11556;51.194;3.800;2023-02-28T14:11:37;8.00;72.70
22779;DHT22;11556;51.194;3.800;2023-02-28T14:14:05;7.70;69.70
22779;DHT22;11556;51.194;3.800;2023-02-28T14:16:40;7.70;70.10
22779;DHT22;11556;51.194;3.800;2023-02-28T14:19:29;7.50;69.90
22779;DHT22;11556;51.194;3.800;2023-02-28T14:37:33;7.90;73.30
22779;DHT22;11556;51.194;3.800;2023-02-28T14:40:00;7.30;71.10
22779;DHT22;11556;51.194;3.800;2023-02-28T14:42:35;7.30;74.60
22779;DHT22;11556;51.194;3.800;2023-02-28T14:45:04;7.50;74.90
22779;DHT22;11556;51.194;3.800;2023-02-28T14:47:33;7.60;72.90
22779;DHT22;11556;51.194;3.800;2023-02-28T14:50:01;7.60;72.90
22779;DHT22;11556;51.194;3.800;2023-02-28T14:52:31;7.40;72.40
22779;DHT22;11556;51.194;3.800;2023-02-28T14:55:06;7.40;71.70
22779;DHT22;11556;51.194;3.800;2023-02-28T14:57:38;7.10;73.30
22779;DHT22;11556;51.194;3.800;2023-02-28T15:02:45;7.10;72.50
22779;DHT22;11556;51.194;3.800;2023-02-28T15:07:47;7.20;76.20
22779;DHT22;11556;51.194;3.800;2023-02-28T15:12:54;7.40;75.20
22779;DHT22;11556;51.194;3.800;2023-02-28T15:18:46;7.40;74.40
22779;DHT22;11556;51.194;3.800;2023-02-28T15:24:03;7.20;76.50
22779;DHT22;11556;51.194;3.800;2023-02-28T15:26:33;7.20;75.40
22779;DHT22;11556;51.194;3.800;2023-02-28T15:29:02;7.20;77.00
22779;DHT22;11556;51.194;3.800;2023-02-28T15:31:33;7.20;76.40
22779;DHT22;11556;51.194;3.800;2023-02-28T15:34:04;7.20;74.70
22779;DHT22;11556;51.194;3.800;2023-02-28T15:36:31;7.10;76.00
22779;DHT22;11556;51.194;3.800;2023-02-28T15:38:59;7.10;78.10
22779;DHT22;11556;51.194;3.800;2023-02-28T15:41:30;7.00;77.60
22779;DHT22;11556;51.194;3.800;2023-02-28T15:44:29;7.00;78.70
22779;DHT22;11556;51.194;3.800;2023-02-28T15:47:06;7.00;77.60
22779;DHT22;11556;51.194;3.800;2023-02-28T15:49:48;7.10;79.10
22779;DHT22;11556;51.194;3.800;2023-02-28T15:55:23;7.00;79.20
22779;DHT22;11556;51.194;3.800;2023-02-28T15:57:52;6.80;79.10
22779;DHT22;11556;51.194;3.800;2023-02-28T16:00:21;6.80;78.20
22779;DHT22;11556;51.194;3.800;2023-02-28T16:02:47;6.50;79.40
22779;DHT22;11556;51.194;3.800;2023-02-28T16:05:18;6.50;78.70
22779;DHT22;11556;51.194;3.800;2023-02-28T16:07:46;6.40;80.50
22779;DHT22;11556;51.194;3.800;2023-02-28T16:10:13;6.50;82.00
22779;DHT22;11556;51.194;3.800;2023-02-28T16:12:40;6.50;81.30
22779;DHT22;11556;51.194;3.800;2023-02-28T16:15:17;6.60;80.40
22779;DHT22;11556;51.194;3.800;2023-02-28T16:17:44;6.50;81.60
22779;DHT22;11556;51.194;3.800;2023-02-28T16:20:16;6.60;83.40
22779;DHT22;11556;51.194;3.800;2023-02-28T16:22:42;6.60;81.90
22779;DHT22;11556;51.194;3.800;2023-02-28T16:25:15;6.50;82.80
22779;DHT22;11556;51.194;3.800;2023-02-28T16:27:42;6.40;84.80
22779;DHT22;11556;51.194;3.800;2023-02-28T16:30:17;6.30;83.90
22779;DHT22;11556;51.194;3.800;2023-02-28T16:32:43;6.30;84.40
22779;DHT22;11556;51.194;3.800;2023-02-28T16:35:10;6.20;82.70
22779;DHT22;11556;51.194;3.800;2023-02-28T16:37:36;6.00;83.70
22779;DHT22;11556;51.194;3.800;2023-02-28T16:40:03;6.00;85.10
22779;DHT22;11556;51.194;3.800;2023-02-28T16:42:29;6.00;85.50
22779;DHT22;11556;51.194;3.800;2023-02-28T16:44:56;5.90;85.00
22779;DHT22;11556;51.194;3.800;2023-02-28T16:47:23;5.90;86.90
22779;DHT22;11556;51.194;3.800;2023-02-28T16:49:49;5.90;89.40
22779;DHT22;11556;51.194;3.800;2023-02-28T16:52:15;5.80;87.60
22779;DHT22;11556;51.194;3.800;2023-02-28T16:54:41;5.80;88.90
22779;DHT22;11556;51.194;3.800;2023-02-28T16:57:24;5.70;89.70
22779;DHT22;11556;51.194;3.800;2023-02-28T16:59:50;5.70;89.70
22779;DHT22;11556;51.194;3.800;2023-02-28T17:02:18;5.60;90.00
22779;DHT22;11556;51.194;3.800;2023-02-28T17:04:45;5.60;90.30
22779;DHT22;11556;51.194;3.800;2023-02-28T17:07:12;5.50;89.40
22779;DHT22;11556;51.194;3.800;2023-02-28T17:09:38;5.50;90.40
22779;DHT22;11556;51.194;3.800;2023-02-28T17:12:04;5.40;89.40
22779;DHT22;11556;51.194;3.800;2023-02-28T17:14:29;5.30;90.20
22779;DHT22;11556;51.194;3.800;2023-02-28T17:16:55;5.30;90.60
22779;DHT22;11556;51.194;3.800;2023-02-28T17:19:21;5.20;91.00
22779;DHT22;11556;51.194;3.800;2023-02-28T17:21:46;5.20;91.60
22779;DHT22;11556;51.194;3.800;2023-02-28T17:24:12;5.10;91.30
22779;DHT22;11556;51.194;3.800;2023-02-28T17:26:39;5.10;92.30
22779;DHT22;11556;51.194;3.800;2023-02-28T17:29:20;5.00;92.20
22779;DHT22;11556;51.194;3.800;2023-02-28T17:31:46;5.00;92.50
22779;DHT22;11556;51.194;3.800;2023-02-28T17:34:12;4.90;92.50
22779;DHT22;11556;51.194;3.800;2023-02-28T17:36:46;4.90;93.20
22779;DHT22;11556;51.194;3.800;2023-02-28T17:39:13;4.90;93.30
22779;DHT22;11556;51.194;3.800;2023-02-28T17:41:43;4.80;94.00
22779;DHT22;11556;51.194;3.800;2023-02-28T17:44:09;4.70;94.10
22779;DHT22;11556;51.194;3.800;2023-02-28T17:46:35;4.70;93.70
22779;DHT22;11556;51.194;3.800;2023-02-28T17:49:01;4.60;94.20
22779;DHT22;11556;51.194;3.800;2023-02-28T17:51:26;4.50;95.00
22779;DHT22;11556;51.194;3.800;2023-02-28T17:53:52;4.50;94.60
22779;DHT22;11556;51.194;3.800;2023-02-28T17:56:21;4.40;95.00
22779;DHT22;11556;51.194;3.800;2023-02-28T17:58:49;4.40;95.60
22779;DHT22;11556;51.194;3.800;2023-02-28T18:01:14;4.40;96.00
22779;DHT22;11556;51.194;3.800;2023-02-28T18:03:40;4.30;95.90
22779;DHT22;11556;51.194;3.800;2023-02-28T18:06:07;4.30;96.20
22779;DHT22;11556;51.194;3.800;2023-02-28T18:08:37;4.20;96.50
22779;DHT22;11556;51.194;3.800;2023-02-28T18:11:03;4.20;97.00
22779;DHT22;11556;51.194;3.800;2023-02-28T18:13:28;4.20;96.90
22779;DHT22;11556;51.194;3.800;2023-02-28T18:15:54;4.10;97.00
22779;DHT22;11556;51.194;3.800;2023-02-28T18:18:20;4.10;97.40
22779;DHT22;11556;51.194;3.800;2023-02-28T18:20:45;4.00;97.90
22779;DHT22;11556;51.194;3.800;2023-02-28T18:23:13;4.00;97.90
22779;DHT22;11556;51.194;3.800;2023-02-28T18:25:39;4.00;98.60
22779;DHT22;11556;51.194;3.800;2023-02-28T18:28:05;3.90;98.80
22779;DHT22;11556;51.194;3.800;2023-02-28T18:30:34;3.90;98.80
22779;DHT22;11556;51.194;3.800;2023-02-28T18:33:01;3.90;98.50
22779;DHT22;11556;51.194;3.800;2023-02-28T18:35:27;3.90;99.50
22779;DHT22;11556;51.194;3.800;2023-02-28T18:38:09;3.80;99.40
22779;DHT22;11556;51.194;3.800;2023-02-28T18:40:36;3.80;99.90
22779;DHT22;11556;51.194;3.800;2023-02-28T18:43:02;3.80;99.90